sensor_id;sensor_type;location;lat;lon;timestamp;P1;P2;P0
44881;PMS5003;30612;38.304;23.786;2024-03-06T00:00:33;0.00;0.00;0.00
44881;PMS5003;30612;38.304;23.786;2024-03-06T00:03:00;0.00;0.00;0.00
44881;PMS5003;30612;38.304;23.786;2024-03-06T00:05:28;0.00;0.00;0.00
44881;PMS5003;30612;38.304;23.786;2024-03-06T00:07:55;0.00;0.00;0.00
44881;PMS5003;30612;38.304;23.786;2024-03-06T00:10:22;0.00;0.00;0.00
44881;PMS5003;30612;38.304;23.786;2024-03-06T00:12:50;0.00;0.00;0.00
44881;PMS5003;30612;38.304;23.786;2024-03-06T00:15:17;0.00;0.00;0.00
44881;PMS5003;30612;38.304;23.786;2024-03-06T00:17:44;0.00;0.00;0.00
44881;PMS5003;30612;38.304;23.786;2024-03-06T00:20:11;0.00;0.00;0.00
44881;PMS5003;30612;38.304;23.786;2024-03-06T00:22:39;0.00;0.00;0.00
44881;PMS5003;30612;38.304;23.786;2024-03-06T00:25:07;0.00;0.00;0.00
44881;PMS5003;30612;38.304;23.786;2024-03-06T00:27:35;0.00;0.00;0.00
44881;PMS5003;30612;38.304;23.786;2024-03-06T00:30:02;0.00;0.00;0.00
44881;PMS5003;30612;38.304;23.786;2024-03-06T00:32:30;0.00;0.00;0.00
44881;PMS5003;30612;38.304;23.786;2024-03-06T00:34:57;0.00;0.00;0.00
44881;PMS5003;30612;38.304;23.786;2024-03-06T00:37:25;0.00;0.00;0.00
44881;PMS5003;30612;38.304;23.786;2024-03-06T00:39:52;0.00;0.00;0.00
44881;PMS5003;30612;38.304;23.786;2024-03-06T00:42:20;0.00;0.00;0.00
44881;PMS5003;30612;38.304;23.786;2024-03-06T00:44:47;0.00;0.00;0.00
44881;PMS5003;30612;38.304;23.786;2024-03-06T00:47:14;0.00;0.00;0.00
44881;PMS5003;30612;38.304;23.786;2024-03-06T00:49:41;0.00;0.00;0.00
44881;PMS5003;30612;38.304;23.786;2024-03-06T00:52:09;0.00;0.00;0.00
44881;PMS5003;30612;38.304;23.786;2024-03-06T00:54:36;0.00;0.00;0.00
44881;PMS5003;30612;38.304;23.786;2024-03-06T00:57:03;0.00;0.00;0.00
44881;PMS5003;30612;38.304;23.786;2024-03-06T00:59:31;0.00;0.00;0.00
44881;PMS5003;30612;38.304;23.786;2024-03-06T01:01:58;0.00;0.00;0.00
44881;PMS5003;30612;38.304;23.786;2024-03-06T01:04:26;0.00;0.00;0.00
44881;PMS5003;30612;38.304;23.786;2024-03-06T01:06:53;0.00;0.00;0.00
44881;PMS5003;30612;38.304;23.786;2024-03-06T01:09:20;0.00;0.00;0.00
44881;PMS5003;30612;38.304;23.786;2024-03-06T01:11:49;0.00;0.00;0.00
44881;PMS5003;30612;38.304;23.786;2024-03-06T01:14:17;0.00;0.00;0.00
44881;PMS5003;30612;38.304;23.786;2024-03-06T01:16:44;0.00;0.00;0.00
44881;PMS5003;30612;38.304;23.786;2024-03-06T01:19:11;0.00;0.00;0.00
44881;PMS5003;30612;38.304;23.786;2024-03-06T01:21:38;0.00;0.00;0.00
44881;PMS5003;30612;38.304;23.786;2024-03-06T01:24:06;0.00;0.00;0.00
44881;PMS5003;30612;38.304;23.786;2024-03-06T01:26:33;0.00;0.00;0.00
44881;PMS5003;30612;38.304;23.786;2024-03-06T01:29:01;0.00;0.00;0.00
44881;PMS5003;30612;38.304;23.786;2024-03-06T01:31:28;0.00;0.00;0.00
44881;PMS5003;30612;38.304;23.786;2024-03-06T01:33:56;0.00;0.00;0.00
44881;PMS5003;30612;38.304;23.786;2024-03-06T01:36:23;0.00;0.00;0.00
44881;PMS5003;30612;38.304;23.786;2024-03-06T01:38:51;0.40;0.40;0.00
44881;PMS5003;30612;38.304;23.786;2024-03-06T01:41:18;0.00;0.00;0.00
44881;PMS5003;30612;38.304;23.786;2024-03-06T01:43:45;0.40;0.40;0.00
44881;PMS5003;30612;38.304;23.786;2024-03-06T01:46:14;0.00;0.00;0.00
44881;PMS5003;30612;38.304;23.786;2024-03-06T01:48:41;0.00;0.00;0.00
44881;PMS5003;30612;38.304;23.786;2024-03-06T01:51:09;0.00;0.00;0.00
44881;PMS5003;30612;38.304;23.786;2024-03-06T01:53:37;0.00;0.00;0.00
44881;PMS5003;30612;38.304;23.786;2024-03-06T01:56:04;0.00;0.00;0.00
44881;PMS5003;30612;38.304;23.786;2024-03-06T01:58:32;0.00;0.00;0.00
44881;PMS5003;30612;38.304;23.786;2024-03-06T02:01:01;0.00;0.00;0.00
44881;PMS5003;30612;38.304;23.786;2024-03-06T02:03:29;1.00;0.00;0.00
44881;PMS5003;30612;38.304;23.786;2024-03-06T02:05:58;0.00;0.00;0.00
44881;PMS5003;30612;38.304;23.786;2024-03-06T02:08:26;1.00;0.00;0.00
44881;PMS5003;30612;38.304;23.786;2024-03-06T02:10:54;0.00;0.00;0.00
44881;PMS5003;30612;38.304;23.786;2024-03-06T02:13:22;0.00;0.00;0.00
44881;PMS5003;30612;38.304;23.786;2024-03-06T02:15:49;0.00;0.00;0.00
44881;PMS5003;30612;38.304;23.786;2024-03-06T02:18:17;0.40;0.40;0.00
44881;PMS5003;30612;38.304;23.786;2024-03-06T02:20:44;0.00;0.00;0.00
44881;PMS5003;30612;38.304;23.786;2024-03-06T02:23:13;0.00;0.00;0.00
44881;PMS5003;30612;38.304;23.786;2024-03-06T02:25:41;0.00;0.00;0.00
44881;PMS5003;30612;38.304;23.786;2024-03-06T02:28:08;0.00;0.00;0.00
44881;PMS5003;30612;38.304;23.786;2024-03-06T02:30:36;0.00;0.00;0.00
44881;PMS5003;30612;38.304;23.786;2024-03-06T02:33:04;0.00;0.00;0.00
44881;PMS5003;30612;38.304;23.786;2024-03-06T02:35:32;0.00;0.00;0.00
44881;PMS5003;30612;38.304;23.786;2024-03-06T02:38:00;0.00;0.00;0.00
44881;PMS5003;30612;38.304;23.786;2024-03-06T02:40:27;0.00;0.00;0.00
44881;PMS5003;30612;38.304;23.786;2024-03-06T02:42:55;0.00;0.00;0.00
44881;PMS5003;30612;38.304;23.786;2024-03-06T02:45:23;0.00;0.00;0.00
44881;PMS5003;30612;38.304;23.786;2024-03-06T02:47:50;0.80;0.80;0.00
44881;PMS5003;30612;38.304;23.786;2024-03-06T02:50:17;0.00;0.00;0.00
44881;PMS5003;30612;38.304;23.786;2024-03-06T02:52:45;0.00;0.00;0.00
44881;PMS5003;30612;38.304;23.786;2024-03-06T02:55:12;0.00;0.00;0.00
44881;PMS5003;30612;38.304;23.786;2024-03-06T02:57:39;0.00;0.00;0.00
44881;PMS5003;30612;38.304;23.786;2024-03-06T03:00:07;0.00;0.00;0.00
44881;PMS5003;30612;38.304;23.786;2024-03-06T03:02:40;0.00;0.00;0.00
44881;PMS5003;30612;38.304;23.786;2024-03-06T03:05:07;0.00;0.00;0.00
44881;PMS5003;30612;38.304;23.786;2024-03-06T03:07:35;0.00;0.00;0.00
44881;PMS5003;30612;38.304;23.786;2024-03-06T03:10:03;0.00;0.00;0.00
44881;PMS5003;30612;38.304;23.786;2024-03-06T03:12:31;0.00;0.00;0.00
44881;PMS5003;30612;38.304;23.786;2024-03-06T03:14:59;0.00;0.00;0.00
44881;PMS5003;30612;38.304;23.786;2024-03-06T03:17:26;0.00;0.00;0.00
44881;PMS5003;30612;38.304;23.786;2024-03-06T03:19:53;0.00;0.00;0.00
44881;PMS5003;30612;38.304;23.786;2024-03-06T03:22:21;0.00;0.00;0.00
44881;PMS5003;30612;38.304;23.786;2024-03-06T03:24:48;0.00;0.00;0.00
44881;PMS5003;30612;38.304;23.786;2024-03-06T03:27:16;0.00;0.00;0.00
44881;PMS5003;30612;38.304;23.786;2024-03-06T03:29:43;0.00;0.00;0.00
44881;PMS5003;30612;38.304;23.786;2024-03-06T03:32:10;0.00;0.00;0.00
44881;PMS5003;30612;38.304;23.786;2024-03-06T03:34:38;0.00;0.00;0.00
44881;PMS5003;30612;38.304;23.786;2024-03-06T03:37:05;0.00;0.00;0.00
44881;PMS5003;30612;38.304;23.786;2024-03-06T03:39:33;0.00;0.00;0.00
44881;PMS5003;30612;38.304;23.786;2024-03-06T03:42:00;0.00;0.00;0.00
44881;PMS5003;30612;38.304;23.786;2024-03-06T03:44:27;0.00;0.00;0.00
44881;PMS5003;30612;38.304;23.786;2024-03-06T03:46:55;0.00;0.00;0.00
44881;PMS5003;30612;38.304;23.786;2024-03-06T03:49:22;0.00;0.00;0.00
44881;PMS5003;30612;38.304;23.786;2024-03-06T03:51:49;0.00;0.00;0.00
44881;PMS5003;30612;38.304;23.786;2024-03-06T03:54:16;0.80;0.00;0.00
44881;PMS5003;30612;38.304;23.786;2024-03-06T03:56:43;0.80;0.00;0.00
44881;PMS5003;30612;38.304;23.786;2024-03-06T03:59:11;0.00;0.00;0.00
44881;PMS5003;30612;38.304;23.786;2024-03-06T04:01:38;0.00;0.00;0.00
44881;PMS5003;30612;38.304;23.786;2024-03-06T04:04:06;0.00;0.00;0.00
44881;PMS5003;30612;38.304;23.786;2024-03-06T04:06:35;0.60;0.60;0.00
44881;PMS5003;30612;38.304;23.786;2024-03-06T04:09:02;1.20;1.20;0.20
44881;PMS5003;30612;38.304;23.786;2024-03-06T04:11:31;0.00;0.00;0.00
44881;PMS5003;30612;38.304;23.786;2024-03-06T04:14:06;0.00;0.00;0.00
44881;PMS5003;30612;38.304;23.786;2024-03-06T04:16:34;1.00;0.40;0.00
44881;PMS5003;30612;38.304;23.786;2024-03-06T04:19:01;0.00;0.00;0.00
44881;PMS5003;30612;38.304;23.786;2024-03-06T04:21:30;0.20;0.00;0.00
44881;PMS5003;30612;38.304;23.786;2024-03-06T04:23:58;0.00;0.00;0.00
44881;PMS5003;30612;38.304;23.786;2024-03-06T04:26:25;2.00;2.00;0.00
44881;PMS5003;30612;38.304;23.786;2024-03-06T04:28:52;0.00;0.00;0.00
44881;PMS5003;30612;38.304;23.786;2024-03-06T04:31:20;0.40;0.20;0.00
44881;PMS5003;30612;38.304;23.786;2024-03-06T04:33:47;0.00;0.00;0.00
44881;PMS5003;30612;38.304;23.786;2024-03-06T04:36:14;0.00;0.00;0.00
44881;PMS5003;30612;38.304;23.786;2024-03-06T04:38:42;0.00;0.00;0.00
44881;PMS5003;30612;38.304;23.786;2024-03-06T04:41:09;0.40;0.00;0.00
44881;PMS5003;30612;38.304;23.786;2024-03-06T04:43:37;0.00;0.00;0.00
44881;PMS5003;30612;38.304;23.786;2024-03-06T04:46:05;0.00;0.00;0.00
44881;PMS5003;30612;38.304;23.786;2024-03-06T04:48:32;0.00;0.00;0.00
44881;PMS5003;30612;38.304;23.786;2024-03-06T04:50:59;2.40;0.40;0.00
44881;PMS5003;30612;38.304;23.786;2024-03-06T04:53:27;0.00;0.00;0.00
44881;PMS5003;30612;38.304;23.786;2024-03-06T04:55:54;0.00;0.00;0.00
44881;PMS5003;30612;38.304;23.786;2024-03-06T04:58:22;0.00;0.00;0.00
44881;PMS5003;30612;38.304;23.786;2024-03-06T05:00:49;0.00;0.00;0.00
44881;PMS5003;30612;38.304;23.786;2024-03-06T05:03:17;0.00;0.00;0.00
44881;PMS5003;30612;38.304;23.786;2024-03-06T05:06:02;0.00;0.00;0.00
44881;PMS5003;30612;38.304;23.786;2024-03-06T05:08:46;0.00;0.00;0.00
44881;PMS5003;30612;38.304;23.786;2024-03-06T05:11:31;0.00;0.00;0.00
44881;PMS5003;30612;38.304;23.786;2024-03-06T05:14:17;0.00;0.00;0.00
44881;PMS5003;30612;38.304;23.786;2024-03-06T05:17:01;0.00;0.00;0.00
44881;PMS5003;30612;38.304;23.786;2024-03-06T05:19:46;0.00;0.00;0.00
44881;PMS5003;30612;38.304;23.786;2024-03-06T05:22:31;0.00;0.00;0.00
44881;PMS5003;30612;38.304;23.786;2024-03-06T05:25:16;0.40;0.40;0.00
44881;PMS5003;30612;38.304;23.786;2024-03-06T05:28:00;1.00;1.00;0.00
44881;PMS5003;30612;38.304;23.786;2024-03-06T05:30:45;0.00;0.00;0.00
44881;PMS5003;30612;38.304;23.786;2024-03-06T05:33:35;0.60;0.60;0.00
44881;PMS5003;30612;38.304;23.786;2024-03-06T05:36:19;0.60;0.60;0.00
44881;PMS5003;30612;38.304;23.786;2024-03-06T05:39:03;0.00;0.00;0.00
44881;PMS5003;30612;38.304;23.786;2024-03-06T05:41:51;0.20;0.20;0.00
44881;PMS5003;30612;38.304;23.786;2024-03-06T05:44:35;0.40;0.40;0.20
44881;PMS5003;30612;38.304;23.786;2024-03-06T05:47:19;2.00;1.00;0.00
44881;PMS5003;30612;38.304;23.786;2024-03-06T05:50:05;0.00;0.00;0.00
44881;PMS5003;30612;38.304;23.786;2024-03-06T05:52:50;1.00;1.00;0.00
44881;PMS5003;30612;38.304;23.786;2024-03-06T05:55:34;0.40;0.40;0.00
44881;PMS5003;30612;38.304;23.786;2024-03-06T05:58:19;0.40;0.40;0.00
44881;PMS5003;30612;38.304;23.786;2024-03-06T06:00:47;1.00;1.00;0.00
44881;PMS5003;30612;38.304;23.786;2024-03-06T06:03:15;0.00;0.00;0.00
44881;PMS5003;30612;38.304;23.786;2024-03-06T06:05:42;0.40;0.40;0.00
44881;PMS5003;30612;38.304;23.786;2024-03-06T06:08:10;1.00;1.00;0.00
44881;PMS5003;30612;38.304;23.786;2024-03-06T06:10:37;0.20;0.20;0.00
44881;PMS5003;30612;38.304;23.786;2024-03-06T06:13:05;0.80;0.00;0.00
44881;PMS5003;30612;38.304;23.786;2024-03-06T06:15:32;1.80;0.00;0.00
44881;PMS5003;30612;38.304;23.786;2024-03-06T06:18:00;0.20;0.00;0.00
44881;PMS5003;30612;38.304;23.786;2024-03-06T06:20:27;0.40;0.40;0.00
44881;PMS5003;30612;38.304;23.786;2024-03-06T06:22:55;1.20;1.00;0.00
44881;PMS5003;30612;38.304;23.786;2024-03-06T06:25:22;1.00;1.00;0.00
44881;PMS5003;30612;38.304;23.786;2024-03-06T06:27:50;1.40;1.00;1.00
44881;PMS5003;30612;38.304;23.786;2024-03-06T06:30:17;0.00;0.00;0.00
44881;PMS5003;30612;38.304;23.786;2024-03-06T06:32:45;1.60;0.60;0.00
44881;PMS5003;30612;38.304;23.786;2024-03-06T06:35:15;0.00;0.00;0.00
44881;PMS5003;30612;38.304;23.786;2024-03-06T06:37:43;0.40;0.00;0.00
44881;PMS5003;30612;38.304;23.786;2024-03-06T06:40:10;0.00;0.00;0.00
44881;PMS5003;30612;38.304;23.786;2024-03-06T06:42:48;0.00;0.00;0.00
44881;PMS5003;30612;38.304;23.786;2024-03-06T06:45:19;0.00;0.00;0.00
44881;PMS5003;30612;38.304;23.786;2024-03-06T06:47:47;0.20;0.20;0.00
44881;PMS5003;30612;38.304;23.786;2024-03-06T06:50:15;0.40;0.00;0.00
44881;PMS5003;30612;38.304;23.786;2024-03-06T06:52:43;1.00;1.00;0.00
44881;PMS5003;30612;38.304;23.786;2024-03-06T06:55:10;1.20;0.60;0.00
44881;PMS5003;30612;38.304;23.786;2024-03-06T06:57:38;0.60;0.60;0.00
44881;PMS5003;30612;38.304;23.786;2024-03-06T07:00:06;1.00;1.00;0.00
44881;PMS5003;30612;38.304;23.786;2024-03-06T07:02:40;0.40;0.40;0.00
44881;PMS5003;30612;38.304;23.786;2024-03-06T07:05:10;2.00;1.00;0.00
44881;PMS5003;30612;38.304;23.786;2024-03-06T07:07:38;0.60;0.60;0.00
44881;PMS5003;30612;38.304;23.786;2024-03-06T07:10:06;0.00;0.00;0.00
44881;PMS5003;30612;38.304;23.786;2024-03-06T07:12:35;1.00;0.00;0.00
44881;PMS5003;30612;38.304;23.786;2024-03-06T07:15:03;0.00;0.00;0.00
44881;PMS5003;30612;38.304;23.786;2024-03-06T07:17:31;0.60;0.60;0.00
44881;PMS5003;30612;38.304;23.786;2024-03-06T07:19:59;0.00;0.00;0.00
44881;PMS5003;30612;38.304;23.786;2024-03-06T07:22:26;0.80;0.80;0.00
44881;PMS5003;30612;38.304;23.786;2024-03-06T07:24:53;0.00;0.00;0.00
44881;PMS5003;30612;38.304;23.786;2024-03-06T07:27:21;0.40;0.40;0.00
44881;PMS5003;30612;38.304;23.786;2024-03-06T07:29:49;0.00;0.00;0.00
44881;PMS5003;30612;38.304;23.786;2024-03-06T07:32:16;0.80;0.80;0.00
44881;PMS5003;30612;38.304;23.786;2024-03-06T07:34:44;1.60;1.60;0.60
44881;PMS5003;30612;38.304;23.786;2024-03-06T07:37:11;1.80;1.80;1.00
44881;PMS5003;30612;38.304;23.786;2024-03-06T07:39:39;0.80;0.80;0.00
44881;PMS5003;30612;38.304;23.786;2024-03-06T07:42:06;1.00;1.00;0.00
44881;PMS5003;30612;38.304;23.786;2024-03-06T07:44:34;2.20;1.00;0.00
44881;PMS5003;30612;38.304;23.786;2024-03-06T07:47:03;1.20;1.00;0.20
44881;PMS5003;30612;38.304;23.786;2024-03-06T07:49:31;1.60;1.60;1.00
44881;PMS5003;30612;38.304;23.786;2024-03-06T07:51:58;1.40;1.40;0.80
44881;PMS5003;30612;38.304;23.786;2024-03-06T07:54:25;1.00;1.00;0.20
44881;PMS5003;30612;38.304;23.786;2024-03-06T07:56:53;1.40;1.40;0.00
44881;PMS5003;30612;38.304;23.786;2024-03-06T07:59:21;1.60;0.60;0.00
44881;PMS5003;30612;38.304;23.786;2024-03-06T08:01:48;2.00;2.00;1.00
44881;PMS5003;30612;38.304;23.786;2024-03-06T08:04:16;1.80;1.80;0.00
44881;PMS5003;30612;38.304;23.786;2024-03-06T08:06:44;1.00;0.80;0.40
44881;PMS5003;30612;38.304;23.786;2024-03-06T08:09:11;0.80;0.80;0.60
44881;PMS5003;30612;38.304;23.786;2024-03-06T08:11:38;0.20;0.20;0.00
44881;PMS5003;30612;38.304;23.786;2024-03-06T08:14:06;0.40;0.40;0.00
44881;PMS5003;30612;38.304;23.786;2024-03-06T08:16:33;0.00;0.00;0.00
44881;PMS5003;30612;38.304;23.786;2024-03-06T08:19:03;0.00;0.00;0.00
44881;PMS5003;30612;38.304;23.786;2024-03-06T08:21:30;0.20;0.20;0.00
44881;PMS5003;30612;38.304;23.786;2024-03-06T08:23:58;1.20;1.20;0.00
44881;PMS5003;30612;38.304;23.786;2024-03-06T08:26:25;1.00;0.20;0.00
44881;PMS5003;30612;38.304;23.786;2024-03-06T08:28:53;2.00;2.00;1.00
44881;PMS5003;30612;38.304;23.786;2024-03-06T08:31:21;2.00;1.60;0.00
44881;PMS5003;30612;38.304;23.786;2024-03-06T08:33:52;1.00;1.00;0.00
44881;PMS5003;30612;38.304;23.786;2024-03-06T08:36:20;1.00;1.00;0.00
44881;PMS5003;30612;38.304;23.786;2024-03-06T08:38:48;1.60;1.00;0.00
44881;PMS5003;30612;38.304;23.786;2024-03-06T08:41:18;1.00;1.00;1.00
44881;PMS5003;30612;38.304;23.786;2024-03-06T08:43:47;1.00;1.00;0.00
44881;PMS5003;30612;38.304;23.786;2024-03-06T08:46:14;0.80;0.80;0.40
44881;PMS5003;30612;38.304;23.786;2024-03-06T08:48:42;1.00;1.00;0.00
44881;PMS5003;30612;38.304;23.786;2024-03-06T08:51:09;1.00;1.00;1.00
44881;PMS5003;30612;38.304;23.786;2024-03-06T08:53:38;2.00;0.80;0.00
44881;PMS5003;30612;38.304;23.786;2024-03-06T08:56:05;1.00;1.00;0.00
44881;PMS5003;30612;38.304;23.786;2024-03-06T08:58:33;0.20;0.20;0.00
44881;PMS5003;30612;38.304;23.786;2024-03-06T09:01:00;0.00;0.00;0.00
44881;PMS5003;30612;38.304;23.786;2024-03-06T09:03:28;0.00;0.00;0.00
44881;PMS5003;30612;38.304;23.786;2024-03-06T09:05:55;1.40;1.40;0.60
44881;PMS5003;30612;38.304;23.786;2024-03-06T09:08:23;0.20;0.20;0.00
44881;PMS5003;30612;38.304;23.786;2024-03-06T09:10:50;2.00;2.00;1.00
44881;PMS5003;30612;38.304;23.786;2024-03-06T09:13:17;1.00;1.00;1.00
44881;PMS5003;30612;38.304;23.786;2024-03-06T09:15:45;1.40;1.40;1.00
44881;PMS5003;30612;38.304;23.786;2024-03-06T09:18:12;1.00;1.00;0.00
44881;PMS5003;30612;38.304;23.786;2024-03-06T09:20:39;0.00;0.00;0.00
44881;PMS5003;30612;38.304;23.786;2024-03-06T09:23:07;0.40;0.40;0.00
44881;PMS5003;30612;38.304;23.786;2024-03-06T09:25:34;0.80;0.80;0.00
44881;PMS5003;30612;38.304;23.786;2024-03-06T09:28:02;1.00;1.00;0.00
44881;PMS5003;30612;38.304;23.786;2024-03-06T09:30:32;1.00;0.00;0.00
44881;PMS5003;30612;38.304;23.786;2024-03-06T09:32:59;0.00;0.00;0.00
44881;PMS5003;30612;38.304;23.786;2024-03-06T09:35:27;0.80;0.80;0.00
44881;PMS5003;30612;38.304;23.786;2024-03-06T09:37:54;2.00;1.20;0.00
44881;PMS5003;30612;38.304;23.786;2024-03-06T09:40:24;1.00;0.40;0.00
44881;PMS5003;30612;38.304;23.786;2024-03-06T09:42:52;1.00;1.00;0.00
44881;PMS5003;30612;38.304;23.786;2024-03-06T09:45:20;1.80;1.60;1.00
44881;PMS5003;30612;38.304;23.786;2024-03-06T09:47:47;2.00;1.00;0.00
44881;PMS5003;30612;38.304;23.786;2024-03-06T09:50:17;3.20;2.00;0.20
44881;PMS5003;30612;38.304;23.786;2024-03-06T09:52:50;2.00;1.20;1.00
44881;PMS5003;30612;38.304;23.786;2024-03-06T09:55:19;1.00;1.00;0.40
44881;PMS5003;30612;38.304;23.786;2024-03-06T09:57:47;1.00;1.00;0.00
44881;PMS5003;30612;38.304;23.786;2024-03-06T10:00:16;0.80;0.80;0.00
44881;PMS5003;30612;38.304;23.786;2024-03-06T10:02:59;0.60;0.60;0.00
44881;PMS5003;30612;38.304;23.786;2024-03-06T10:05:27;1.00;1.00;0.00
44881;PMS5003;30612;38.304;23.786;2024-03-06T10:07:55;0.80;0.80;0.00
44881;PMS5003;30612;38.304;23.786;2024-03-06T10:10:22;1.00;1.00;0.00
44881;PMS5003;30612;38.304;23.786;2024-03-06T10:12:50;1.00;1.00;0.00
44881;PMS5003;30612;38.304;23.786;2024-03-06T10:15:18;0.60;0.60;0.00
44881;PMS5003;30612;38.304;23.786;2024-03-06T10:17:45;1.00;1.00;0.00
44881;PMS5003;30612;38.304;23.786;2024-03-06T10:20:23;1.00;1.00;0.00
44881;PMS5003;30612;38.304;23.786;2024-03-06T10:22:52;0.80;0.80;0.00
44881;PMS5003;30612;38.304;23.786;2024-03-06T10:25:25;3.00;1.00;0.00
44881;PMS5003;30612;38.304;23.786;2024-03-06T10:28:08;1.00;1.00;0.00
44881;PMS5003;30612;38.304;23.786;2024-03-06T10:30:40;0.20;0.20;0.00
44881;PMS5003;30612;38.304;23.786;2024-03-06T10:33:09;0.00;0.00;0.00
44881;PMS5003;30612;38.304;23.786;2024-03-06T10:35:37;1.80;1.80;0.00
44881;PMS5003;30612;38.304;23.786;2024-03-06T10:38:08;0.80;0.80;0.00
44881;PMS5003;30612;38.304;23.786;2024-03-06T10:40:36;1.80;1.80;0.80
44881;PMS5003;30612;38.304;23.786;2024-03-06T10:43:05;1.00;1.00;0.80
44881;PMS5003;30612;38.304;23.786;2024-03-06T10:48:09;1.00;1.00;1.00
44881;PMS5003;30612;38.304;23.786;2024-03-06T10:50:40;0.20;0.20;0.00
44881;PMS5003;30612;38.304;23.786;2024-03-06T10:53:12;1.00;1.00;0.60
44881;PMS5003;30612;38.304;23.786;2024-03-06T10:55:46;0.20;0.20;0.00
44881;PMS5003;30612;38.304;23.786;2024-03-06T10:58:14;0.00;0.00;0.00
44881;PMS5003;30612;38.304;23.786;2024-03-06T11:00:44;1.00;1.00;0.00
44881;PMS5003;30612;38.304;23.786;2024-03-06T11:03:13;0.00;0.00;0.00
44881;PMS5003;30612;38.304;23.786;2024-03-06T11:05:42;1.40;1.40;0.00
44881;PMS5003;30612;38.304;23.786;2024-03-06T11:08:12;0.00;0.00;0.00
44881;PMS5003;30612;38.304;23.786;2024-03-06T11:10:41;0.20;0.00;0.00
44881;PMS5003;30612;38.304;23.786;2024-03-06T11:13:22;0.40;0.40;0.00
44881;PMS5003;30612;38.304;23.786;2024-03-06T11:15:52;1.40;1.40;0.60
44881;PMS5003;30612;38.304;23.786;2024-03-06T11:23:31;1.00;1.00;0.00
44881;PMS5003;30612;38.304;23.786;2024-03-06T11:31:02;1.00;1.00;0.60
44881;PMS5003;30612;38.304;23.786;2024-03-06T11:33:41;2.00;2.00;0.00
44881;PMS5003;30612;38.304;23.786;2024-03-06T11:38:42;1.60;1.60;1.00
44881;PMS5003;30612;38.304;23.786;2024-03-06T11:41:20;1.00;1.00;0.00
44881;PMS5003;30612;38.304;23.786;2024-03-06T11:43:52;1.80;1.80;1.00
44881;PMS5003;30612;38.304;23.786;2024-03-06T11:46:40;1.00;1.00;0.80
44881;PMS5003;30612;38.304;23.786;2024-03-06T11:51:45;2.00;2.00;1.00
44881;PMS5003;30612;38.304;23.786;2024-03-06T11:54:13;2.00;2.00;1.00
44881;PMS5003;30612;38.304;23.786;2024-03-06T11:56:42;3.80;2.00;1.00
44881;PMS5003;30612;38.304;23.786;2024-03-06T11:59:11;1.80;1.80;1.00
44881;PMS5003;30612;38.304;23.786;2024-03-06T12:01:40;2.60;2.60;0.60
44881;PMS5003;30612;38.304;23.786;2024-03-06T12:04:08;2.60;2.00;1.00
44881;PMS5003;30612;38.304;23.786;2024-03-06T12:06:36;2.00;2.00;1.00
44881;PMS5003;30612;38.304;23.786;2024-03-06T12:09:04;2.00;1.00;0.20
44881;PMS5003;30612;38.304;23.786;2024-03-06T12:11:32;1.00;1.00;0.60
44881;PMS5003;30612;38.304;23.786;2024-03-06T12:14:03;1.00;1.00;0.00
44881;PMS5003;30612;38.304;23.786;2024-03-06T12:16:31;3.60;2.60;1.00
44881;PMS5003;30612;38.304;23.786;2024-03-06T12:18:59;2.00;2.00;1.00
44881;PMS5003;30612;38.304;23.786;2024-03-06T12:21:27;2.20;1.40;0.80
44881;PMS5003;30612;38.304;23.786;2024-03-06T12:24:06;1.40;1.40;0.00
44881;PMS5003;30612;38.304;23.786;2024-03-06T12:26:35;1.00;1.00;0.20
44881;PMS5003;30612;38.304;23.786;2024-03-06T12:29:04;1.00;1.00;0.00
44881;PMS5003;30612;38.304;23.786;2024-03-06T12:31:38;4.00;1.80;0.20
44881;PMS5003;30612;38.304;23.786;2024-03-06T12:34:13;1.00;1.00;0.60
44881;PMS5003;30612;38.304;23.786;2024-03-06T12:36:41;1.00;1.00;1.00
44881;PMS5003;30612;38.304;23.786;2024-03-06T12:39:08;1.80;1.40;1.00
44881;PMS5003;30612;38.304;23.786;2024-03-06T12:41:49;3.00;2.00;1.00
44881;PMS5003;30612;38.304;23.786;2024-03-06T12:44:19;2.40;2.40;1.00
44881;PMS5003;30612;38.304;23.786;2024-03-06T12:46:47;2.00;2.00;1.20
44881;PMS5003;30612;38.304;23.786;2024-03-06T12:49:14;2.00;2.00;1.00
44881;PMS5003;30612;38.304;23.786;2024-03-06T12:51:43;2.00;2.00;1.00
44881;PMS5003;30612;38.304;23.786;2024-03-06T12:54:11;3.00;3.00;1.00
44881;PMS5003;30612;38.304;23.786;2024-03-06T12:56:39;2.60;2.00;0.60
44881;PMS5003;30612;38.304;23.786;2024-03-06T12:59:09;2.00;2.00;0.60
44881;PMS5003;30612;38.304;23.786;2024-03-06T13:01:37;1.80;1.00;0.40
44881;PMS5003;30612;38.304;23.786;2024-03-06T13:04:05;2.00;2.00;1.00
44881;PMS5003;30612;38.304;23.786;2024-03-06T13:06:36;1.60;1.00;0.00
44881;PMS5003;30612;38.304;23.786;2024-03-06T13:09:03;2.00;2.00;1.20
44881;PMS5003;30612;38.304;23.786;2024-03-06T13:11:31;1.00;1.00;0.00
44881;PMS5003;30612;38.304;23.786;2024-03-06T13:13:58;1.00;1.00;1.00
44881;PMS5003;30612;38.304;23.786;2024-03-06T13:16:30;1.00;1.00;0.00
44881;PMS5003;30612;38.304;23.786;2024-03-06T13:18:57;2.00;2.00;0.00
44881;PMS5003;30612;38.304;23.786;2024-03-06T13:21:27;0.80;0.80;0.00
44881;PMS5003;30612;38.304;23.786;2024-03-06T13:23:55;0.80;0.80;0.00
44881;PMS5003;30612;38.304;23.786;2024-03-06T13:26:22;1.00;1.00;0.80
44881;PMS5003;30612;38.304;23.786;2024-03-06T13:28:51;1.00;1.00;0.00
44881;PMS5003;30612;38.304;23.786;2024-03-06T13:31:19;1.40;1.40;0.00
44881;PMS5003;30612;38.304;23.786;2024-03-06T13:33:46;0.60;0.60;0.00
44881;PMS5003;30612;38.304;23.786;2024-03-06T13:36:16;1.80;1.20;0.40
44881;PMS5003;30612;38.304;23.786;2024-03-06T13:38:43;2.00;2.00;1.00
44881;PMS5003;30612;38.304;23.786;2024-03-06T13:41:11;2.00;2.00;1.00
44881;PMS5003;30612;38.304;23.786;2024-03-06T13:43:39;1.40;1.40;1.00
44881;PMS5003;30612;38.304;23.786;2024-03-06T13:46:07;2.00;1.00;1.00
44881;PMS5003;30612;38.304;23.786;2024-03-06T13:48:35;0.00;0.00;0.00
44881;PMS5003;30612;38.304;23.786;2024-03-06T13:51:04;2.20;2.20;1.00
44881;PMS5003;30612;38.304;23.786;2024-03-06T13:53:31;2.40;1.60;1.20
44881;PMS5003;30612;38.304;23.786;2024-03-06T13:55:59;3.20;3.20;2.60
44881;PMS5003;30612;38.304;23.786;2024-03-06T13:58:27;3.00;3.00;2.00
44881;PMS5003;30612;38.304;23.786;2024-03-06T14:00:54;2.00;1.80;1.00
44881;PMS5003;30612;38.304;23.786;2024-03-06T14:03:22;5.00;2.00;1.00
44881;PMS5003;30612;38.304;23.786;2024-03-06T14:05:49;4.20;4.20;1.00
44881;PMS5003;30612;38.304;23.786;2024-03-06T14:08:17;6.00;3.20;2.00
44881;PMS5003;30612;38.304;23.786;2024-03-06T14:10:45;3.40;3.40;2.00
44881;PMS5003;30612;38.304;23.786;2024-03-06T14:13:12;7.00;5.20;2.60
44881;PMS5003;30612;38.304;23.786;2024-03-06T14:15:39;5.80;4.60;1.40
44881;PMS5003;30612;38.304;23.786;2024-03-06T14:18:07;3.00;3.00;1.80
44881;PMS5003;30612;38.304;23.786;2024-03-06T14:20:34;3.40;1.80;1.00
44881;PMS5003;30612;38.304;23.786;2024-03-06T14:23:01;2.60;2.00;1.00
44881;PMS5003;30612;38.304;23.786;2024-03-06T14:25:29;3.00;3.00;1.40
44881;PMS5003;30612;38.304;23.786;2024-03-06T14:27:57;3.60;3.60;2.00
44881;PMS5003;30612;38.304;23.786;2024-03-06T14:30:25;4.20;3.00;2.00
44881;PMS5003;30612;38.304;23.786;2024-03-06T14:32:52;5.60;5.60;2.80
44881;PMS5003;30612;38.304;23.786;2024-03-06T14:35:20;5.00;5.00;2.00
44881;PMS5003;30612;38.304;23.786;2024-03-06T14:37:47;3.40;3.40;1.80